Alpha, IL

8:44 PM CDT on May 06, 2015 (GMT -0500)
Burnham Family Farm | | Change Station
CLOSE
Current Station
Personal Weather Station
Location: Orion, IL
Elevation: 768 ft
Nearby Weather Stations

Elev 768 ft 41.36 °N, 90.38 °W | Updated 1 second ago

Partly Cloudy
Partly Cloudy
66.9 °F
Feels Like 66.9 °F
N
0.0
Wind Variable Wind from ESE
Gusts 0.0 mph

Today
High -- | Low -- °F
--% Chance of Precip.
Yesterday
High -- | Low -- °F
Precip. -- in
5:53 AM 8:03 PM
Waning Gibbous, 91% visible
Pressure 29.99 in
Visibility 10.0 miles
Clouds Scattered Clouds 12000 ft
Dew Point 64 °F
Humidity 89%
Rainfall 0.00 in
Snow Depth Not available.
UV 0.0 out of 12
Pollen 10.50 out of 12
Air Quality Not available.
Flu Activity Local Activity
METAR KGBG 070135Z AUTO 00000KT 10SM SCT120 18/16 A2999 RMK AO2 T01800156

More Conditions Fewer Conditions

Pressure 29.99 in
Visibility 10.0 miles
Clouds Scattered Clouds 12000 ft
Dew Point 64 °F
Humidity 89%
Rainfall 0.00 in
Snow Depth Not available.
UV 0.0 out of 12
Pollen 10.50 out of 12
Air Quality Not available.
Flu Activity Local Activity
METAR KGBG 070135Z AUTO 00000KT 10SM SCT120 18/16 A2999 RMK AO2 T01800156

More Conditions Fewer Conditions

10-Day Weather Forecast

Almanac

Astronomy

May. 06, 2015 Rise Set
Actual Time
Civil Twilight
Nautical Twilight
Astronomical Twilight
Moon
Length of Visible Light
Length of Day
Tomorrow will be .
, % of the Moon is Illuminated

Today's Extremes

State Highs State Lows

Community

WunderPhotos

Upload Photos

1,819,070 photos uploaded!

WunderBlogs® & News

Nearby

Air Quality

  Air Quality AQ Index Pollutant
Not available.

Snow Depth

Station Depth Elevation

Earthquake Activity

City Distance Mag. Time & Date
Minimum magnitude displayed is 2.5.

Coastal Water Temperatures

Place Temperature

Stations

Nearby Weather Stations

Station Location Temp. Windchill Dew Point Humidity Wind Precip. Elev Updated Type